createdAt,value
2019-04-06T00:01:34.434Z,52.77
2019-04-06T00:04:01.605Z,51.30
2019-04-06T00:06:28.689Z,52.43
2019-04-06T00:08:55.964Z,51.10
2019-04-06T00:11:23.104Z,57.20
2019-04-06T00:13:50.221Z,53.30
2019-04-06T00:16:17.379Z,51.60
2019-04-06T00:18:44.611Z,52.00
2019-04-06T00:21:13.875Z,51.87
2019-04-06T00:23:40.966Z,53.70
2019-04-06T00:26:08.138Z,51.90
2019-04-06T00:28:35.220Z,50.40
2019-04-06T00:31:22.117Z,50.97
2019-04-06T00:33:49.422Z,48.93
2019-04-06T00:36:16.614Z,51.27
2019-04-06T00:38:43.766Z,50.83
2019-04-06T00:41:11.423Z,49.97
2019-04-06T00:43:38.628Z,50.43
2019-04-06T00:46:05.753Z,50.93
2019-04-06T00:48:32.957Z,49.20
2019-04-06T00:51:00.091Z,49.50
2019-04-06T00:53:27.526Z,51.93
2019-04-06T00:55:55.852Z,54.57
2019-04-06T00:58:23.488Z,50.90
2019-04-06T01:00:52.105Z,51.67
2019-04-06T01:03:19.187Z,51.10
2019-04-06T01:05:46.603Z,49.27
2019-04-06T01:08:13.862Z,51.67
2019-04-06T01:10:40.956Z,53.00
2019-04-06T01:13:08.036Z,49.67
2019-04-06T01:15:35.188Z,52.93
2019-04-06T01:18:02.362Z,50.07
2019-04-06T01:20:29.470Z,51.33
2019-04-06T01:22:57.466Z,51.37
2019-04-06T01:25:24.634Z,52.27
2019-04-06T01:27:51.718Z,49.93
2019-04-06T01:30:18.847Z,50.93
2019-04-06T01:32:46.111Z,52.10
2019-04-06T01:35:13.196Z,50.93
2019-04-06T01:37:40.466Z,52.90
2019-04-06T01:40:07.869Z,53.83
2019-04-06T01:42:35.246Z,53.00
2019-04-06T01:45:02.484Z,52.60
2019-04-06T01:47:29.568Z,53.93
2019-04-06T01:49:56.654Z,53.30
2019-04-06T01:52:23.773Z,52.80
2019-04-06T01:54:50.878Z,54.57
2019-04-06T01:57:18.089Z,55.23
2019-04-06T01:59:45.219Z,53.30
2019-04-06T02:02:19.297Z,52.83
2019-04-06T02:04:47.633Z,54.23
2019-04-06T02:07:14.835Z,57.07
2019-04-06T02:09:41.986Z,54.57
2019-04-06T02:12:09.077Z,54.70
2019-04-06T02:14:36.277Z,56.73
2019-04-06T02:17:03.398Z,55.03
2019-04-06T02:20:11.677Z,56.57
2019-04-06T02:22:38.828Z,54.00
2019-04-06T02:25:06.630Z,55.43
2019-04-06T02:27:33.998Z,54.33
2019-04-06T02:30:21.317Z,57.20
2019-04-06T02:33:20.170Z,54.03
2019-04-06T02:36:06.839Z,52.17
2019-04-06T02:38:52.560Z,56.73
2019-04-06T02:41:39.270Z,52.80
2019-04-06T02:44:06.381Z,53.27
2019-04-06T02:46:33.560Z,56.20
2019-04-06T02:49:00.660Z,56.03
2019-04-06T02:51:27.734Z,55.00
2019-04-06T02:53:54.818Z,56.30
2019-04-06T02:56:59.106Z,55.67
2019-04-06T02:59:26.272Z,53.93
2019-04-06T03:01:53.377Z,55.67
2019-04-06T03:04:20.504Z,60.00
2019-04-06T03:06:47.582Z,56.60
2019-04-06T03:09:14.665Z,54.23
2019-04-06T03:11:41.787Z,58.47
2019-04-06T03:14:08.840Z,55.37
2019-04-06T03:16:37.728Z,52.80
2019-04-06T03:19:04.967Z,58.33
2019-04-06T03:21:32.049Z,57.20
2019-04-06T03:23:59.184Z,56.57
2019-04-06T03:26:29.730Z,58.00
2019-04-06T03:28:57.281Z,58.17
2019-04-06T03:31:27.391Z,60.53
2019-04-06T03:33:53.402Z,58.27
2019-04-06T03:36:20.765Z,59.17
2019-04-06T03:38:47.913Z,60.03
2019-04-06T03:41:15.322Z,59.87
2019-04-06T03:43:42.417Z,57.90
2019-04-06T03:46:09.517Z,60.40
2019-04-06T03:48:36.601Z,54.53
2019-04-06T03:51:09.444Z,57.03
2019-04-06T03:53:36.720Z,57.27
2019-04-06T03:56:03.903Z,58.07
2019-04-06T03:58:30.963Z,59.67
2019-04-06T04:00:58.040Z,57.70
2019-04-06T04:03:25.170Z,60.43
2019-04-06T04:05:52.217Z,62.83
2019-04-06T04:08:25.239Z,59.17
2019-04-06T04:10:52.299Z,58.40
2019-04-06T04:13:19.362Z,56.17
2019-04-06T04:15:46.785Z,60.73
2019-04-06T04:18:13.845Z,59.73
2019-04-06T04:20:40.891Z,59.40
2019-04-06T04:23:07.990Z,60.67
2019-04-06T04:25:35.041Z,59.73
2019-04-06T04:28:02.085Z,57.93
2019-04-06T04:30:32.812Z,59.80
2019-04-06T04:32:58.141Z,58.30
2019-04-06T04:35:25.197Z,61.60
2019-04-06T04:37:58.396Z,57.97
2019-04-06T04:40:26.712Z,58.13
2019-04-06T04:42:53.745Z,59.20
2019-04-06T04:45:20.828Z,58.10
2019-04-06T04:47:50.143Z,59.77
2019-04-06T04:50:16.868Z,57.77
2019-04-06T04:52:44.048Z,62.67
2019-04-06T04:55:11.206Z,58.40
2019-04-06T04:57:41.250Z,61.90
2019-04-06T05:00:07.911Z,58.40
2019-04-06T05:02:34.977Z,57.93
2019-04-06T05:05:02.203Z,58.27
2019-04-06T05:07:29.474Z,58.73
2019-04-06T05:09:56.476Z,56.87
2019-04-06T05:12:23.572Z,57.03
2019-04-06T05:14:57.734Z,56.23
2019-04-06T05:17:24.806Z,57.20
2019-04-06T05:19:51.895Z,55.50
2019-04-06T05:22:18.932Z,59.13
2019-04-06T05:24:46.002Z,58.10
2019-04-06T05:27:13.209Z,58.50
2019-04-06T05:29:40.374Z,55.37
2019-04-06T05:32:07.428Z,56.53
2019-04-06T05:34:34.690Z,56.93
2019-04-06T05:37:01.773Z,57.07
2019-04-06T05:39:30.266Z,55.57
2019-04-06T05:41:57.318Z,58.10
2019-04-06T05:44:24.362Z,57.80
2019-04-06T05:46:51.514Z,55.53
2019-04-06T05:49:19.787Z,54.90
2019-04-06T05:51:47.272Z,56.00
2019-04-06T05:54:16.164Z,55.07
2019-04-06T05:56:43.294Z,55.33
2019-04-06T05:59:10.908Z,54.67
2019-04-06T06:01:40.279Z,52.00
2019-04-06T06:04:08.851Z,53.80
2019-04-06T06:06:36.161Z,51.43
2019-04-06T06:09:05.697Z,53.50
2019-04-06T06:11:32.798Z,52.13
2019-04-06T06:13:59.845Z,49.00
2019-04-06T06:16:26.906Z,51.13
2019-04-06T06:18:54.011Z,48.87
2019-04-06T06:21:21.197Z,51.70
2019-04-06T06:23:48.295Z,48.97
2019-04-06T06:26:15.458Z,47.97
2019-04-06T06:28:42.510Z,47.43
2019-04-06T06:31:09.659Z,47.97
2019-04-06T06:33:36.758Z,48.27
2019-04-06T06:36:04.203Z,48.50
2019-04-06T06:38:31.536Z,45.93
2019-04-06T06:40:58.667Z,48.40
2019-04-06T06:43:25.725Z,46.87
2019-04-06T06:45:52.802Z,43.80
2019-04-06T06:48:19.927Z,45.10
2019-04-06T06:50:46.994Z,42.17
2019-04-06T06:53:14.163Z,40.67
2019-04-06T06:55:41.372Z,42.10
2019-04-06T06:58:08.435Z,40.27
2019-04-06T07:00:35.502Z,40.50
2019-04-06T07:03:02.593Z,37.73
2019-04-06T07:05:29.756Z,37.83
2019-04-06T07:07:56.815Z,38.20
2019-04-06T07:10:23.932Z,37.27
2019-04-06T07:12:51.006Z,36.93
2019-04-06T07:15:18.209Z,34.33
2019-04-06T07:17:45.581Z,36.43
2019-04-06T07:20:13.555Z,36.27
2019-04-06T07:22:40.662Z,32.60
2019-04-06T07:25:08.269Z,34.30
2019-04-06T07:27:35.468Z,31.97
2019-04-06T07:30:03.159Z,32.43
2019-04-06T07:32:30.316Z,34.73
2019-04-06T07:34:57.641Z,32.43
2019-04-06T07:37:24.724Z,33.57
2019-04-06T07:39:51.861Z,31.13
2019-04-06T07:42:18.914Z,31.03
2019-04-06T07:44:45.978Z,29.13
2019-04-06T07:47:13.124Z,26.80
2019-04-06T07:49:40.276Z,28.87
2019-04-06T07:52:07.370Z,29.23
2019-04-06T07:54:34.421Z,27.80
2019-04-06T07:57:01.490Z,29.67
2019-04-06T07:59:28.583Z,28.53
2019-04-06T08:01:55.768Z,27.07
2019-04-06T08:04:22.835Z,27.77
2019-04-06T08:06:50.007Z,30.70
2019-04-06T08:09:17.142Z,28.13
2019-04-06T08:11:44.217Z,29.60
2019-04-06T08:14:11.323Z,27.60
2019-04-06T08:16:38.496Z,29.43
2019-04-06T08:19:05.558Z,27.60
2019-04-06T08:21:32.641Z,27.63
2019-04-06T08:24:05.900Z,28.17
2019-04-06T08:26:33.144Z,25.90
2019-04-06T08:29:02.451Z,25.97
2019-04-06T08:31:30.986Z,26.77
2019-04-06T08:33:58.230Z,26.73
2019-04-06T08:36:25.395Z,26.70
2019-04-06T08:38:52.653Z,27.37
2019-04-06T08:41:19.726Z,27.17
2019-04-06T08:43:46.888Z,28.60
2019-04-06T08:46:14.034Z,26.37
2019-04-06T08:48:41.150Z,26.70
2019-04-06T08:51:08.296Z,25.60
2019-04-06T08:53:35.432Z,24.27
2019-04-06T08:56:02.504Z,23.73
2019-04-06T08:58:29.577Z,22.63
2019-04-06T09:00:56.905Z,21.67
2019-04-06T09:03:24.188Z,23.03
2019-04-06T09:05:51.382Z,22.80
2019-04-06T09:08:18.443Z,22.70
2019-04-06T09:10:46.041Z,22.17
2019-04-06T09:13:13.254Z,22.13
2019-04-06T09:15:40.417Z,19.13
2019-04-06T09:18:07.513Z,19.47
2019-04-06T09:20:34.608Z,21.20
2019-04-06T09:23:01.777Z,20.27
2019-04-06T09:25:29.129Z,19.47
2019-04-06T09:27:56.241Z,21.50
2019-04-06T09:30:23.305Z,21.73
2019-04-06T09:32:50.355Z,21.97
2019-04-06T09:35:35.981Z,21.37
2019-04-06T09:38:03.348Z,20.67
2019-04-06T09:40:30.479Z,21.97
2019-04-06T09:42:57.611Z,19.63
2019-04-06T09:45:43.794Z,20.50
2019-04-06T09:48:33.684Z,21.10
2019-04-06T09:51:20.453Z,21.30
2019-04-06T09:54:07.774Z,21.27
2019-04-06T09:57:03.797Z,21.60
2019-04-06T09:59:40.694Z,22.60
2019-04-06T10:02:17.403Z,22.60
2019-04-06T10:05:02.923Z,22.40
2019-04-06T10:07:55.249Z,22.37
2019-04-06T10:10:40.537Z,25.13
2019-04-06T10:13:30.395Z,22.67
2019-04-06T10:16:03.825Z,23.87
2019-04-06T10:18:53.258Z,24.67
2019-04-06T10:21:38.776Z,23.10
2019-04-06T10:24:24.149Z,24.40
2019-04-06T10:27:09.221Z,23.03
2019-04-06T10:30:05.050Z,22.97
2019-04-06T10:33:09.853Z,26.30
2019-04-06T10:35:59.252Z,25.67
2019-04-06T10:38:39.024Z,25.83
2019-04-06T10:41:18.336Z,25.13
2019-04-06T10:44:03.771Z,24.80
2019-04-06T10:46:37.418Z,23.17
2019-04-06T10:49:30.411Z,26.23
2019-04-06T10:52:15.885Z,25.70
2019-04-06T10:55:01.730Z,25.80
2019-04-06T10:57:47.876Z,27.50
2019-04-06T11:00:50.189Z,32.57
2019-04-06T11:03:31.519Z,30.63
2019-04-06T11:06:18.433Z,31.33
2019-04-06T11:08:50.390Z,30.00
2019-04-06T11:11:36.955Z,33.67
2019-04-06T11:14:22.467Z,30.40
2019-04-06T11:17:11.403Z,31.50
2019-04-06T11:19:57.108Z,29.83
2019-04-06T11:22:42.602Z,29.87
2019-04-06T11:25:21.304Z,30.07
2019-04-06T11:28:17.209Z,29.77
2019-04-06T11:31:02.969Z,30.27
2019-04-06T11:33:48.924Z,30.93
2019-04-06T11:36:29.815Z,30.47
2019-04-06T11:39:15.937Z,31.83
2019-04-06T11:42:01.384Z,31.33
2019-04-06T11:44:43.174Z,31.13
2019-04-06T11:47:22.491Z,33.07
2019-04-06T11:49:57.567Z,33.80
2019-04-06T11:52:44.353Z,31.23
2019-04-06T11:55:18.316Z,32.30
2019-04-06T11:58:04.310Z,33.87
2019-04-06T12:00:49.438Z,33.33
2019-04-06T12:03:35.136Z,37.53
2019-04-06T12:06:26.277Z,31.70
2019-04-06T12:09:11.759Z,32.43
2019-04-06T12:12:07.657Z,30.30
2019-04-06T12:14:54.304Z,29.70
2019-04-06T12:20:55.358Z,32.03
2019-04-06T12:23:42.697Z,32.53
2019-04-06T12:26:19.646Z,31.63
2019-04-06T12:29:22.901Z,32.50
2019-04-06T12:32:10.070Z,28.63
2019-04-06T12:34:54.165Z,36.40
2019-04-06T12:38:06.083Z,30.23
2019-04-06T12:40:56.363Z,30.23
2019-04-06T12:43:48.935Z,28.40
2019-04-06T12:46:41.971Z,29.20
2019-04-06T12:49:31.603Z,30.47
2019-04-06T12:52:20.916Z,28.83
2019-04-06T12:55:10.567Z,30.53
2019-04-06T12:57:46.557Z,29.73
2019-04-06T13:00:49.478Z,32.00
2019-04-06T13:03:14.318Z,29.77
2019-04-06T13:06:00.999Z,30.77
2019-04-06T13:08:45.677Z,30.77
2019-04-06T13:11:30.904Z,28.17
2019-04-06T13:15:05.617Z,223.67
2019-04-06T13:17:55.458Z,28.43
2019-04-06T13:20:45.451Z,28.93
2019-04-06T13:23:34.971Z,30.50
2019-04-06T13:26:20.869Z,30.10
2019-04-06T13:29:06.998Z,28.87
2019-04-06T13:31:43.341Z,29.70
2019-04-06T13:34:39.149Z,29.40
2019-04-06T13:37:13.700Z,28.73
2019-04-06T13:40:09.373Z,36.83
2019-04-06T13:42:54.998Z,32.40
2019-04-06T13:45:41.720Z,29.53
2019-04-06T13:48:27.358Z,34.67
2019-04-06T13:51:04.427Z,213.03
2019-04-06T13:53:57.311Z,30.17
2019-04-06T13:56:43.448Z,31.03
2019-04-06T13:59:28.407Z,36.07
2019-04-06T14:02:14.124Z,28.07
2019-04-06T14:05:13.107Z,34.63
2019-04-06T14:07:58.177Z,28.93
2019-04-06T14:10:35.342Z,30.43
2019-04-06T14:13:20.862Z,30.43
2019-04-06T14:16:05.690Z,33.93
2019-04-06T14:18:58.112Z,29.67
2019-04-06T14:21:37.718Z,27.93
2019-04-06T14:24:36.760Z,28.27
2019-04-06T14:27:23.741Z,29.70
2019-04-06T14:30:13.584Z,33.03
2019-04-06T14:32:56.752Z,30.93
2019-04-06T14:35:50.035Z,32.93
2019-04-06T14:38:39.874Z,39.07
2019-04-06T14:41:42.058Z,39.87
2019-04-06T14:44:40.781Z,35.47
2019-04-06T14:47:33.273Z,32.60
2019-04-06T14:50:19.981Z,37.87
2019-04-06T14:53:22.003Z,32.00
2019-04-06T14:56:07.257Z,32.20
2019-04-06T14:58:53.953Z,31.20
2019-04-06T15:01:51.106Z,31.47
2019-04-06T15:04:28.053Z,32.37
2019-04-06T15:07:12.344Z,33.10
2019-04-06T15:09:58.112Z,31.20
2019-04-06T15:12:34.523Z,33.43
2019-04-06T15:15:24.038Z,31.03
2019-04-06T15:18:10.739Z,31.23
2019-04-06T15:20:53.254Z,32.37
2019-04-06T15:23:36.749Z,34.93
2019-04-06T15:26:14.260Z,32.83
2019-04-06T15:29:00.412Z,31.90
2019-04-06T15:31:52.800Z,31.47
2019-04-06T15:34:43.766Z,32.87
2019-04-06T15:37:36.539Z,30.93
2019-04-06T15:40:29.960Z,32.03
2019-04-06T15:43:06.776Z,33.00
2019-04-06T15:45:44.523Z,30.87
2019-04-06T15:48:38.030Z,32.80
2019-04-06T15:51:19.791Z,33.20
2019-04-06T15:54:21.730Z,33.30
2019-04-06T15:57:20.403Z,32.20
2019-04-06T15:59:53.664Z,33.70
2019-04-06T16:02:46.814Z,32.23
2019-04-06T16:05:22.963Z,34.03
2019-04-06T16:08:18.708Z,36.43
2019-04-06T16:11:04.358Z,38.40
2019-04-06T16:13:53.958Z,40.23
2019-04-06T16:16:41.022Z,40.47
2019-04-06T16:19:23.762Z,40.77
2019-04-06T16:22:10.426Z,39.23
2019-04-06T16:24:57.091Z,41.07
2019-04-06T16:27:49.862Z,40.83
2019-04-06T16:30:35.632Z,41.53
2019-04-06T16:33:37.634Z,41.07
2019-04-06T16:36:18.945Z,40.53
2019-04-06T16:39:04.529Z,41.50
2019-04-06T16:41:56.524Z,42.00
2019-04-06T16:44:45.330Z,43.20
2019-04-06T16:47:34.803Z,40.97
2019-04-06T16:50:42.817Z,42.70
2019-04-06T16:53:29.465Z,40.63
2019-04-06T16:56:11.115Z,41.33
2019-04-06T16:58:56.393Z,42.07
2019-04-06T17:01:46.095Z,43.40
2019-04-06T17:04:34.412Z,44.13
2019-04-06T17:07:24.196Z,44.57
2019-04-06T17:10:10.841Z,42.37
2019-04-06T17:13:03.852Z,44.53
2019-04-06T17:15:40.436Z,44.93
2019-04-06T17:18:23.660Z,45.97
2019-04-06T17:21:00.052Z,46.80
2019-04-06T17:23:45.566Z,46.40
2019-04-06T17:26:31.298Z,45.87
2019-04-06T17:29:24.456Z,46.57
2019-04-06T17:32:08.656Z,47.70
2019-04-06T17:34:54.254Z,47.03
2019-04-06T17:37:54.383Z,47.23
2019-04-06T17:40:39.545Z,48.50
2019-04-06T17:43:41.578Z,50.23
2019-04-06T17:46:40.206Z,47.90
2019-04-06T17:49:39.184Z,50.07
2019-04-06T17:52:34.895Z,49.57
2019-04-06T17:55:27.694Z,48.50
2019-04-06T17:58:06.851Z,49.40
2019-04-06T18:01:06.053Z,50.53
2019-04-06T18:04:01.678Z,52.07
2019-04-06T18:06:41.038Z,51.60
2019-04-06T18:09:16.863Z,53.40
2019-04-06T18:12:03.491Z,54.77
2019-04-06T18:14:30.580Z,54.43
2019-04-06T18:16:58.286Z,52.70
2019-04-06T18:19:25.380Z,53.93
2019-04-06T18:21:52.849Z,52.97
2019-04-06T18:24:20.231Z,54.50
2019-04-06T18:26:47.608Z,54.63
2019-04-06T18:29:15.151Z,55.80
2019-04-06T18:31:48.416Z,57.70
2019-04-06T18:34:16.059Z,56.10
2019-04-06T18:36:53.449Z,58.73
2019-04-06T18:39:21.274Z,58.77
2019-04-06T18:41:48.828Z,60.17
2019-04-06T18:44:16.531Z,58.57
2019-04-06T18:46:43.827Z,60.43
2019-04-06T18:49:10.966Z,61.13
2019-04-06T18:51:38.006Z,57.63
2019-04-06T18:54:05.303Z,57.67
2019-04-06T18:56:32.493Z,60.20
2019-04-06T18:58:59.615Z,60.00
2019-04-06T19:01:26.810Z,59.37
2019-04-06T19:03:53.943Z,56.00
2019-04-06T19:06:22.841Z,55.50
2019-04-06T19:08:50.245Z,58.63
2019-04-06T19:11:17.444Z,58.23
2019-04-06T19:13:44.689Z,58.47
2019-04-06T19:16:11.762Z,56.97
2019-04-06T19:18:38.929Z,54.03
2019-04-06T19:21:06.020Z,48.50
2019-04-06T19:23:33.399Z,52.07
2019-04-06T19:26:01.821Z,56.33
2019-04-06T19:28:29.092Z,50.70
2019-04-06T19:30:57.638Z,54.90
2019-04-06T19:33:26.538Z,50.53
2019-04-06T19:35:53.829Z,49.70
2019-04-06T19:38:20.919Z,50.33
2019-04-06T19:40:48.527Z,54.57
2019-04-06T19:43:17.723Z,56.50
2019-04-06T19:45:44.925Z,56.97
2019-04-06T19:48:12.469Z,57.83
2019-04-06T19:50:39.543Z,59.57
2019-04-06T19:53:06.784Z,58.70
2019-04-06T19:55:35.726Z,62.40
2019-04-06T19:58:02.798Z,59.30
2019-04-06T20:00:30.118Z,61.87
2019-04-06T20:02:57.833Z,54.17
2019-04-06T20:05:25.230Z,50.97
2019-04-06T20:07:52.481Z,51.03
2019-04-06T20:10:19.512Z,49.13
2019-04-06T20:12:47.044Z,53.37
2019-04-06T20:15:14.712Z,50.73
2019-04-06T20:17:41.792Z,52.40
2019-04-06T20:20:09.072Z,54.40
2019-04-06T20:22:36.511Z,55.90
2019-04-06T20:25:05.162Z,58.67
2019-04-06T20:27:32.437Z,58.53
2019-04-06T20:29:59.957Z,60.30
2019-04-06T20:32:27.252Z,63.70
2019-04-06T20:34:54.939Z,53.83
2019-04-06T20:37:22.070Z,58.87
2019-04-06T20:39:50.427Z,63.47
2019-04-06T20:44:49.222Z,67.47
2019-04-06T20:47:16.833Z,56.43
2019-04-06T20:49:43.927Z,69.77
2019-04-06T20:52:11.055Z,66.03
2019-04-06T20:54:38.462Z,62.87
2019-04-06T20:57:05.491Z,64.40
2019-04-06T20:59:37.553Z,65.70
2019-04-06T21:02:04.718Z,63.63
2019-04-06T21:04:31.878Z,62.03
2019-04-06T21:06:59.213Z,63.43
2019-04-06T21:09:26.778Z,57.40
2019-04-06T21:11:54.634Z,61.43
2019-04-06T21:14:29.997Z,66.43
2019-04-06T21:16:57.542Z,61.87
2019-04-06T21:19:24.855Z,62.53
2019-04-06T21:21:52.145Z,56.67
2019-04-06T21:24:19.367Z,63.60
2019-04-06T21:26:46.855Z,60.30
2019-04-06T21:29:14.186Z,59.77
2019-04-06T21:31:41.947Z,63.27
2019-04-06T21:34:12.100Z,65.17
2019-04-06T21:36:38.192Z,61.80
2019-04-06T21:39:48.454Z,56.93
2019-04-06T21:42:16.230Z,60.33
2019-04-06T21:44:43.570Z,68.13
2019-04-06T21:47:11.002Z,65.23
2019-04-06T21:49:38.975Z,64.07
2019-04-06T21:52:07.583Z,61.30
2019-04-06T21:54:34.775Z,66.63
2019-04-06T21:57:01.894Z,68.20
2019-04-06T21:59:30.092Z,68.70
2019-04-06T22:01:57.199Z,65.13
2019-04-06T22:04:26.669Z,62.53
2019-04-06T22:06:53.997Z,66.10
2019-04-06T22:09:21.968Z,61.83
2019-04-06T22:11:49.198Z,57.73
2019-04-06T22:14:17.021Z,59.43
2019-04-06T22:16:44.648Z,49.63
2019-04-06T22:19:12.070Z,48.77
2019-04-06T22:21:47.247Z,49.27
2019-04-06T22:24:15.047Z,56.13
2019-04-06T22:26:42.766Z,51.53
2019-04-06T22:29:09.918Z,54.20
2019-04-06T22:31:37.137Z,60.17
2019-04-06T22:34:04.180Z,56.83
2019-04-06T22:36:31.247Z,54.37
2019-04-06T22:38:58.364Z,57.40
2019-04-06T22:41:25.433Z,68.47
2019-04-06T22:43:52.652Z,60.37
2019-04-06T22:46:20.242Z,70.03
2019-04-06T22:48:47.477Z,67.90
2019-04-06T22:51:14.881Z,92.30
2019-04-06T22:53:42.166Z,90.17
2019-04-06T22:56:09.247Z,89.67
2019-04-06T22:58:36.867Z,93.20
2019-04-06T23:01:09.512Z,81.50
2019-04-06T23:04:08.740Z,78.23
2019-04-06T23:06:40.359Z,82.93
2019-04-06T23:09:07.912Z,89.50
2019-04-06T23:11:35.525Z,90.37
2019-04-06T23:14:03.081Z,84.97
2019-04-06T23:16:31.434Z,89.87
2019-04-06T23:18:58.787Z,88.20
2019-04-06T23:21:25.999Z,88.83
2019-04-06T23:23:53.079Z,94.87
2019-04-06T23:26:20.199Z,89.17
2019-04-06T23:28:47.367Z,87.57
2019-04-06T23:31:14.843Z,81.17
2019-04-06T23:33:42.423Z,84.77
2019-04-06T23:36:10.009Z,87.97
2019-04-06T23:38:37.813Z,82.00
2019-04-06T23:41:05.745Z,84.53
2019-04-06T23:43:33.061Z,82.43
2019-04-06T23:46:00.740Z,84.67
2019-04-06T23:48:28.011Z,87.73
2019-04-06T23:50:55.159Z,72.27
2019-04-06T23:53:22.274Z,80.53
2019-04-06T23:55:49.359Z,78.47
2019-04-06T23:58:16.457Z,78.20
